sensor_id;sensor_type;location;lat;lon;timestamp;pressure;altitude;pressure_sealevel;temperature;humidity
78444;BME280;67739;52.986;8.894;2023-07-13T00:00:23;101312.50;;;18.02;62.08
78444;BME280;67739;52.986;8.894;2023-07-13T00:02:48;101304.78;;;17.96;62.04
78444;BME280;67739;52.986;8.894;2023-07-13T00:05:14;101313.25;;;17.91;62.08
78444;BME280;67739;52.986;8.894;2023-07-13T00:07:39;101313.59;;;17.87;62.26
78444;BME280;67739;52.986;8.894;2023-07-13T00:10:05;101312.16;;;17.81;62.38
78444;BME280;67739;52.986;8.894;2023-07-13T00:12:37;101317.03;;;17.76;62.07
78444;BME280;67739;52.986;8.894;2023-07-13T00:15:26;101314.78;;;17.70;62.33
78444;BME280;67739;52.986;8.894;2023-07-13T00:17:52;101324.19;;;17.64;62.32
78444;BME280;67739;52.986;8.894;2023-07-13T00:20:19;101315.50;;;17.59;62.48
78444;BME280;67739;52.986;8.894;2023-07-13T00:22:47;101324.03;;;17.53;62.82
78444;BME280;67739;52.986;8.894;2023-07-13T00:25:13;101322.59;;;17.48;62.79
78444;BME280;67739;52.986;8.894;2023-07-13T00:27:38;101313.94;;;17.43;62.95
78444;BME280;67739;52.986;8.894;2023-07-13T00:30:04;101325.09;;;17.38;62.85
78444;BME280;67739;52.986;8.894;2023-07-13T00:32:30;101333.53;;;17.33;62.93
78444;BME280;67739;52.986;8.894;2023-07-13T00:34:56;101333.00;;;17.28;62.79
78444;BME280;67739;52.986;8.894;2023-07-13T00:37:22;101329.59;;;17.25;62.82
78444;BME280;67739;52.986;8.894;2023-07-13T00:39:48;101328.16;;;17.19;62.86
78444;BME280;67739;52.986;8.894;2023-07-13T00:42:13;101333.91;;;17.15;62.99
78444;BME280;67739;52.986;8.894;2023-07-13T00:44:39;101341.38;;;17.11;63.35
78444;BME280;67739;52.986;8.894;2023-07-13T00:47:05;101338.09;;;17.06;63.29
78444;BME280;67739;52.986;8.894;2023-07-13T00:49:32;101342.00;;;17.02;63.47
78444;BME280;67739;52.986;8.894;2023-07-13T00:52:04;101340.47;;;16.98;63.46
78444;BME280;67739;52.986;8.894;2023-07-13T00:54:36;101339.00;;;16.92;63.29
78444;BME280;67739;52.986;8.894;2023-07-13T00:57:05;101329.34;;;16.88;63.42
78444;BME280;67739;52.986;8.894;2023-07-13T00:59:34;101338.75;;;16.83;63.43
78444;BME280;67739;52.986;8.894;2023-07-13T01:02:00;101335.38;;;16.79;63.99
78444;BME280;67739;52.986;8.894;2023-07-13T01:04:26;101340.09;;;16.76;63.96
78444;BME280;67739;52.986;8.894;2023-07-13T01:06:52;101329.59;;;16.71;63.98
78444;BME280;67739;52.986;8.894;2023-07-13T01:09:19;101340.63;;;16.68;64.13
78444;BME280;67739;52.986;8.894;2023-07-13T01:11:46;101338.19;;;16.64;64.13
78444;BME280;67739;52.986;8.894;2023-07-13T01:14:12;101344.75;;;16.59;64.11
78444;BME280;67739;52.986;8.894;2023-07-13T01:16:39;101343.13;;;16.57;64.02
78444;BME280;67739;52.986;8.894;2023-07-13T01:19:15;101341.56;;;16.53;64.14
78444;BME280;67739;52.986;8.894;2023-07-13T01:21:50;101339.16;;;16.48;64.49
78444;BME280;67739;52.986;8.894;2023-07-13T01:24:15;101333.94;;;16.45;64.60
78444;BME280;67739;52.986;8.894;2023-07-13T01:26:40;101326.13;;;16.41;64.51
78444;BME280;67739;52.986;8.894;2023-07-13T01:29:06;101323.59;;;16.38;64.61
78444;BME280;67739;52.986;8.894;2023-07-13T01:31:33;101320.22;;;16.34;64.41
78444;BME280;67739;52.986;8.894;2023-07-13T01:33:58;101327.66;;;16.31;64.63
78444;BME280;67739;52.986;8.894;2023-07-13T01:36:24;101327.00;;;16.27;64.56
78444;BME280;67739;52.986;8.894;2023-07-13T01:38:49;101323.59;;;16.23;64.56
78444;BME280;67739;52.986;8.894;2023-07-13T01:41:14;101318.38;;;16.20;64.64
78444;BME280;67739;52.986;8.894;2023-07-13T01:43:40;101322.25;;;16.16;64.69
78444;BME280;67739;52.986;8.894;2023-07-13T01:46:05;101317.13;;;16.12;64.89
78444;BME280;67739;52.986;8.894;2023-07-13T01:48:30;101314.63;;;16.09;64.97
78444;BME280;67739;52.986;8.894;2023-07-13T01:50:56;101318.47;;;16.05;64.87
78444;BME280;67739;52.986;8.894;2023-07-13T01:53:21;101325.94;;;16.01;65.09
78444;BME280;67739;52.986;8.894;2023-07-13T01:55:46;101318.88;;;15.99;65.07
78444;BME280;67739;52.986;8.894;2023-07-13T01:58:12;101320.88;;;15.95;65.00
78444;BME280;67739;52.986;8.894;2023-07-13T02:00:37;101330.06;;;15.93;65.17
78444;BME280;67739;52.986;8.894;2023-07-13T02:03:03;101334.78;;;15.89;65.32
78444;BME280;67739;52.986;8.894;2023-07-13T02:05:28;101325.13;;;15.85;65.25
78444;BME280;67739;52.986;8.894;2023-07-13T02:07:53;101328.03;;;15.82;65.49
78444;BME280;67739;52.986;8.894;2023-07-13T02:10:19;101326.38;;;15.79;65.26
78444;BME280;67739;52.986;8.894;2023-07-13T02:12:44;101337.47;;;15.75;65.70
78444;BME280;67739;52.986;8.894;2023-07-13T02:15:10;101341.25;;;15.72;65.07
78444;BME280;67739;52.986;8.894;2023-07-13T02:17:36;101341.44;;;15.69;65.47
78444;BME280;67739;52.986;8.894;2023-07-13T02:20:02;101340.75;;;15.66;65.43
78444;BME280;67739;52.986;8.894;2023-07-13T02:22:28;101340.91;;;15.63;65.86
78444;BME280;67739;52.986;8.894;2023-07-13T02:24:54;101340.22;;;15.59;65.57
78444;BME280;67739;52.986;8.894;2023-07-13T02:27:19;101339.47;;;15.57;66.03
78444;BME280;67739;52.986;8.894;2023-07-13T02:29:44;101336.91;;;15.54;65.60
78444;BME280;67739;52.986;8.894;2023-07-13T02:32:10;101330.81;;;15.50;65.89
78444;BME280;67739;52.986;8.894;2023-07-13T02:34:35;101334.56;;;15.48;66.14
78444;BME280;67739;52.986;8.894;2023-07-13T02:37:00;101325.75;;;15.44;66.11
78444;BME280;67739;52.986;8.894;2023-07-13T02:39:26;101338.63;;;15.41;65.98
78444;BME280;67739;52.986;8.894;2023-07-13T02:41:51;101336.88;;;15.40;66.29
78444;BME280;67739;52.986;8.894;2023-07-13T02:44:16;101333.47;;;15.36;66.30
78444;BME280;67739;52.986;8.894;2023-07-13T02:46:42;101329.13;;;15.34;66.07
78444;BME280;67739;52.986;8.894;2023-07-13T02:49:07;101329.28;;;15.31;66.26
78444;BME280;67739;52.986;8.894;2023-07-13T02:51:32;101324.00;;;15.29;66.34
78444;BME280;67739;52.986;8.894;2023-07-13T02:54:02;101327.75;;;15.27;66.49
78444;BME280;67739;52.986;8.894;2023-07-13T02:56:30;101318.06;;;15.23;66.33
78444;BME280;67739;52.986;8.894;2023-07-13T02:58:56;101322.69;;;15.20;66.20
78444;BME280;67739;52.986;8.894;2023-07-13T03:01:22;101329.16;;;15.18;66.60
78444;BME280;67739;52.986;8.894;2023-07-13T03:03:48;101324.78;;;15.15;66.22
78444;BME280;67739;52.986;8.894;2023-07-13T03:06:15;101328.56;;;15.13;66.58
78444;BME280;67739;52.986;8.894;2023-07-13T03:08:42;101326.91;;;15.10;66.47
78444;BME280;67739;52.986;8.894;2023-07-13T03:11:13;101330.56;;;15.09;66.73
78444;BME280;67739;52.986;8.894;2023-07-13T03:13:40;101328.03;;;15.06;66.66
78444;BME280;67739;52.986;8.894;2023-07-13T03:16:06;101329.09;;;15.04;66.65
78444;BME280;67739;52.986;8.894;2023-07-13T03:18:32;101334.56;;;15.02;66.86
78444;BME280;67739;52.986;8.894;2023-07-13T03:20:57;101331.19;;;14.99;66.56
78444;BME280;67739;52.986;8.894;2023-07-13T03:23:23;101338.44;;;14.98;66.86
78444;BME280;67739;52.986;8.894;2023-07-13T03:25:50;101342.25;;;14.94;66.54
78444;BME280;67739;52.986;8.894;2023-07-13T03:28:15;101332.41;;;14.93;66.82
78444;BME280;67739;52.986;8.894;2023-07-13T03:30:41;101333.47;;;14.91;66.54
78444;BME280;67739;52.986;8.894;2023-07-13T03:33:07;101339.91;;;14.88;66.68
78444;BME280;67739;52.986;8.894;2023-07-13T03:35:34;101347.13;;;14.88;67.16
78444;BME280;67739;52.986;8.894;2023-07-13T03:37:59;101348.09;;;14.86;67.10
78444;BME280;67739;52.986;8.894;2023-07-13T03:40:26;101348.22;;;14.85;66.88
78444;BME280;67739;52.986;8.894;2023-07-13T03:42:52;101345.59;;;14.83;66.87
78444;BME280;67739;52.986;8.894;2023-07-13T03:45:18;101352.81;;;14.83;66.93
78444;BME280;67739;52.986;8.894;2023-07-13T03:47:44;101354.66;;;14.82;67.09
78444;BME280;67739;52.986;8.894;2023-07-13T03:50:09;101358.38;;;14.80;67.06
78444;BME280;67739;52.986;8.894;2023-07-13T03:52:35;101354.81;;;14.79;67.06
78444;BME280;67739;52.986;8.894;2023-07-13T03:55:00;101360.22;;;14.79;67.08
78444;BME280;67739;52.986;8.894;2023-07-13T03:57:25;101363.78;;;14.80;66.91
78444;BME280;67739;52.986;8.894;2023-07-13T03:59:51;101363.78;;;14.80;67.29
78444;BME280;67739;52.986;8.894;2023-07-13T04:02:16;101362.84;;;14.81;67.29
78444;BME280;67739;52.986;8.894;2023-07-13T04:04:42;101368.25;;;14.81;66.93
78444;BME280;67739;52.986;8.894;2023-07-13T04:07:08;101357.44;;;14.81;67.11
78444;BME280;67739;52.986;8.894;2023-07-13T04:09:34;101361.88;;;14.82;67.14
78444;BME280;67739;52.986;8.894;2023-07-13T04:11:59;101376.19;;;14.84;67.36
78444;BME280;67739;52.986;8.894;2023-07-13T04:14:24;101375.22;;;14.85;67.04
78444;BME280;67739;52.986;8.894;2023-07-13T04:16:50;101368.94;;;14.84;67.07
78444;BME280;67739;52.986;8.894;2023-07-13T04:19:15;101367.00;;;14.86;67.15
78444;BME280;67739;52.986;8.894;2023-07-13T04:21:40;101375.03;;;14.88;67.41
78444;BME280;67739;52.986;8.894;2023-07-13T04:24:06;101372.22;;;14.90;66.93
78444;BME280;67739;52.986;8.894;2023-07-13T04:26:33;101370.41;;;14.90;66.97
78444;BME280;67739;52.986;8.894;2023-07-13T04:29:01;101376.59;;;14.92;67.38
78444;BME280;67739;52.986;8.894;2023-07-13T04:31:29;101376.50;;;14.94;67.17
78444;BME280;67739;52.986;8.894;2023-07-13T04:33:54;101369.19;;;14.96;67.01
78444;BME280;67739;52.986;8.894;2023-07-13T04:36:19;101376.34;;;14.97;67.20
78444;BME280;67739;52.986;8.894;2023-07-13T04:38:45;101381.59;;;15.00;67.22
78444;BME280;67739;52.986;8.894;2023-07-13T04:41:10;101380.59;;;15.01;66.94
78444;BME280;67739;52.986;8.894;2023-07-13T04:43:36;101375.09;;;15.02;67.38
78444;BME280;67739;52.986;8.894;2023-07-13T04:46:10;101380.44;;;15.04;66.98
78444;BME280;67739;52.986;8.894;2023-07-13T04:48:36;101374.94;;;15.05;67.07
78444;BME280;67739;52.986;8.894;2023-07-13T04:51:02;101371.28;;;15.06;67.12
78444;BME280;67739;52.986;8.894;2023-07-13T04:53:28;101377.38;;;15.10;67.37
78444;BME280;67739;52.986;8.894;2023-07-13T04:55:54;101380.88;;;15.12;67.24
78444;BME280;67739;52.986;8.894;2023-07-13T04:58:21;101378.84;;;15.15;67.40
78444;BME280;67739;52.986;8.894;2023-07-13T05:00:46;101374.22;;;15.17;68.00
78444;BME280;67739;52.986;8.894;2023-07-13T05:03:12;101387.47;;;15.22;67.99
78444;BME280;67739;52.986;8.894;2023-07-13T05:05:37;101377.44;;;15.24;68.30
78444;BME280;67739;52.986;8.894;2023-07-13T05:08:03;101381.72;;;15.28;68.25
78444;BME280;67739;52.986;8.894;2023-07-13T05:10:28;101387.88;;;15.30;68.74
78444;BME280;67739;52.986;8.894;2023-07-13T05:12:54;101395.75;;;15.35;68.90
78444;BME280;67739;52.986;8.894;2023-07-13T05:15:21;101387.47;;;15.38;68.92
78444;BME280;67739;52.986;8.894;2023-07-13T05:17:48;101396.19;;;15.43;69.34
78444;BME280;67739;52.986;8.894;2023-07-13T05:20:14;101393.28;;;15.46;69.69
78444;BME280;67739;52.986;8.894;2023-07-13T05:22:40;101400.34;;;15.48;69.58
78444;BME280;67739;52.986;8.894;2023-07-13T05:25:06;101407.41;;;15.51;69.49
78444;BME280;67739;52.986;8.894;2023-07-13T05:27:32;101400.00;;;15.54;69.23
78444;BME280;67739;52.986;8.894;2023-07-13T05:29:57;101395.31;;;15.58;69.54
78444;BME280;67739;52.986;8.894;2023-07-13T05:32:23;101399.56;;;15.62;69.76
78444;BME280;67739;52.986;8.894;2023-07-13T05:34:48;101406.44;;;15.68;69.85
78444;BME280;67739;52.986;8.894;2023-07-13T05:37:13;101404.44;;;15.71;70.18
78444;BME280;67739;52.986;8.894;2023-07-13T05:39:38;101408.69;;;15.75;69.96
78444;BME280;67739;52.986;8.894;2023-07-13T05:42:04;101412.06;;;15.79;69.84
78444;BME280;67739;52.986;8.894;2023-07-13T05:44:30;101413.66;;;15.83;69.70
78444;BME280;67739;52.986;8.894;2023-07-13T05:46:56;101420.59;;;15.87;70.05
78444;BME280;67739;52.986;8.894;2023-07-13T05:49:22;101423.13;;;15.90;69.71
78444;BME280;67739;52.986;8.894;2023-07-13T05:51:48;101424.69;;;15.94;70.09
78444;BME280;67739;52.986;8.894;2023-07-13T05:54:14;101421.72;;;15.99;70.00
78444;BME280;67739;52.986;8.894;2023-07-13T05:56:39;101428.56;;;16.04;70.24
78444;BME280;67739;52.986;8.894;2023-07-13T05:59:04;101427.16;;;16.13;70.48
78444;BME280;67739;52.986;8.894;2023-07-13T06:01:30;101426.66;;;16.20;70.43
78444;BME280;67739;52.986;8.894;2023-07-13T06:03:56;101426.13;;;16.30;70.29
78444;BME280;67739;52.986;8.894;2023-07-13T06:06:21;101428.34;;;16.37;70.60
78444;BME280;67739;52.986;8.894;2023-07-13T06:08:47;101429.59;;;16.46;70.19
78444;BME280;67739;52.986;8.894;2023-07-13T06:11:22;101429.13;;;16.53;70.63
78444;BME280;67739;52.986;8.894;2023-07-13T06:13:48;101435.78;;;16.62;70.64
78444;BME280;67739;52.986;8.894;2023-07-13T06:16:14;101433.50;;;16.70;70.52
78444;BME280;67739;52.986;8.894;2023-07-13T06:18:40;101436.59;;;16.78;70.19
78444;BME280;67739;52.986;8.894;2023-07-13T06:21:07;101436.13;;;16.86;70.13
78444;BME280;67739;52.986;8.894;2023-07-13T06:23:32;101436.47;;;16.94;70.24
78444;BME280;67739;52.986;8.894;2023-07-13T06:25:58;101433.16;;;17.03;70.23
78444;BME280;67739;52.986;8.894;2023-07-13T06:28:24;101446.16;;;17.12;70.26
78444;BME280;67739;52.986;8.894;2023-07-13T06:30:49;101450.00;;;17.22;70.19
78444;BME280;67739;52.986;8.894;2023-07-13T06:33:14;101443.94;;;17.31;70.59
78444;BME280;67739;52.986;8.894;2023-07-13T06:35:40;101443.34;;;17.41;70.55
78444;BME280;67739;52.986;8.894;2023-07-13T06:38:05;101437.31;;;17.50;70.40
78444;BME280;67739;52.986;8.894;2023-07-13T06:40:32;101448.63;;;17.56;69.88
78444;BME280;67739;52.986;8.894;2023-07-13T06:42:57;101447.34;;;17.62;69.74
78444;BME280;67739;52.986;8.894;2023-07-13T06:45:23;101452.28;;;17.70;69.46
78444;BME280;67739;52.986;8.894;2023-07-13T06:47:48;101446.34;;;17.77;69.31
78444;BME280;67739;52.986;8.894;2023-07-13T06:50:14;101444.75;;;17.87;69.54
78444;BME280;67739;52.986;8.894;2023-07-13T06:52:40;101450.31;;;17.98;69.32
78444;BME280;67739;52.986;8.894;2023-07-13T06:55:05;101452.28;;;18.09;69.10
78444;BME280;67739;52.986;8.894;2023-07-13T06:57:30;101453.38;;;18.19;69.06
78444;BME280;67739;52.986;8.894;2023-07-13T06:59:56;101448.19;;;18.29;68.94
78444;BME280;67739;52.986;8.894;2023-07-13T07:02:22;101451.03;;;18.40;69.25
78444;BME280;67739;52.986;8.894;2023-07-13T07:04:47;101451.22;;;18.50;69.12
78444;BME280;67739;52.986;8.894;2023-07-13T07:07:13;101455.81;;;18.62;69.04
78444;BME280;67739;52.986;8.894;2023-07-13T07:09:38;101455.06;;;18.73;68.63
78444;BME280;67739;52.986;8.894;2023-07-13T07:12:04;101446.03;;;18.85;68.29
78444;BME280;67739;52.986;8.894;2023-07-13T07:14:30;101439.81;;;18.95;67.81
78444;BME280;67739;52.986;8.894;2023-07-13T07:16:56;101447.94;;;19.08;67.87
78444;BME280;67739;52.986;8.894;2023-07-13T07:19:21;101444.31;;;19.20;68.10
78444;BME280;67739;52.986;8.894;2023-07-13T07:21:46;101456.00;;;19.33;67.78
78444;BME280;67739;52.986;8.894;2023-07-13T07:24:12;101457.84;;;19.46;67.75
78444;BME280;67739;52.986;8.894;2023-07-13T07:26:37;101455.00;;;19.60;67.40
78444;BME280;67739;52.986;8.894;2023-07-13T07:29:02;101446.75;;;19.72;67.12
78444;BME280;67739;52.986;8.894;2023-07-13T07:31:28;101458.34;;;19.87;67.20
78444;BME280;67739;52.986;8.894;2023-07-13T07:33:53;101465.34;;;20.02;66.97
78444;BME280;67739;52.986;8.894;2023-07-13T07:36:19;101461.44;;;20.18;66.58
78444;BME280;67739;52.986;8.894;2023-07-13T07:38:44;101449.44;;;20.31;66.54
78444;BME280;67739;52.986;8.894;2023-07-13T07:41:09;101461.91;;;20.46;66.17
78444;BME280;67739;52.986;8.894;2023-07-13T07:43:35;101459.69;;;20.63;65.59
78444;BME280;67739;52.986;8.894;2023-07-13T07:46:01;101458.59;;;20.76;65.24
78444;BME280;67739;52.986;8.894;2023-07-13T07:48:26;101461.78;;;20.93;65.28
78444;BME280;67739;52.986;8.894;2023-07-13T07:50:52;101455.97;;;21.08;64.80
78444;BME280;67739;52.986;8.894;2023-07-13T07:53:17;101455.72;;;21.23;64.59
78444;BME280;67739;52.986;8.894;2023-07-13T07:55:42;101456.31;;;21.37;64.03
78444;BME280;67739;52.986;8.894;2023-07-13T07:58:08;101455.78;;;21.55;63.71
78444;BME280;67739;52.986;8.894;2023-07-13T08:00:33;101451.78;;;21.70;63.81
78444;BME280;67739;52.986;8.894;2023-07-13T08:03:01;101453.94;;;21.87;63.81
78444;BME280;67739;52.986;8.894;2023-07-13T08:05:26;101458.88;;;22.04;63.25
78444;BME280;67739;52.986;8.894;2023-07-13T08:07:52;101454.94;;;22.18;63.08
78444;BME280;67739;52.986;8.894;2023-07-13T08:10:17;101454.50;;;22.34;62.56
78444;BME280;67739;52.986;8.894;2023-07-13T08:12:43;101450.41;;;22.49;62.52
78444;BME280;67739;52.986;8.894;2023-07-13T08:15:15;101454.38;;;22.66;62.15
78444;BME280;67739;52.986;8.894;2023-07-13T08:17:41;101462.84;;;22.83;61.97
78444;BME280;67739;52.986;8.894;2023-07-13T08:20:07;101464.34;;;22.97;61.65
78444;BME280;67739;52.986;8.894;2023-07-13T08:22:33;101460.38;;;23.11;61.01
78444;BME280;67739;52.986;8.894;2023-07-13T08:24:59;101457.38;;;23.23;60.72
78444;BME280;67739;52.986;8.894;2023-07-13T08:27:26;101456.31;;;23.36;60.48
78444;BME280;67739;52.986;8.894;2023-07-13T08:29:53;101456.75;;;23.50;60.75
78444;BME280;67739;52.986;8.894;2023-07-13T08:32:20;101457.25;;;23.65;60.36
78444;BME280;67739;52.986;8.894;2023-07-13T08:34:46;101464.88;;;23.81;60.09
78444;BME280;67739;52.986;8.894;2023-07-13T08:37:12;101463.31;;;23.97;60.14
78444;BME280;67739;52.986;8.894;2023-07-13T08:39:37;101460.84;;;24.14;60.03
78444;BME280;67739;52.986;8.894;2023-07-13T08:45:00;101462.16;;;24.48;58.82
78444;BME280;67739;52.986;8.894;2023-07-13T08:47:30;101461.69;;;24.62;58.70
78444;BME280;67739;52.986;8.894;2023-07-13T08:49:57;101456.72;;;24.76;58.63
78444;BME280;67739;52.986;8.894;2023-07-13T08:52:49;101465.97;;;24.94;58.35
78444;BME280;67739;52.986;8.894;2023-07-13T08:55:18;101452.44;;;25.10;58.66
78444;BME280;67739;52.986;8.894;2023-07-13T08:57:50;101453.66;;;25.25;57.87
78444;BME280;67739;52.986;8.894;2023-07-13T09:00:18;101447.47;;;25.41;57.74
78444;BME280;67739;52.986;8.894;2023-07-13T09:05:23;101455.25;;;25.73;57.35
78444;BME280;67739;52.986;8.894;2023-07-13T09:10:52;101451.34;;;26.11;56.99
78444;BME280;67739;52.986;8.894;2023-07-13T09:15:59;101463.50;;;26.44;56.43
78444;BME280;67739;52.986;8.894;2023-07-13T09:18:42;101457.25;;;26.60;56.01
78444;BME280;67739;52.986;8.894;2023-07-13T09:21:15;101453.56;;;26.77;56.38
78444;BME280;67739;52.986;8.894;2023-07-13T09:23:42;101462.66;;;26.95;56.28
78444;BME280;67739;52.986;8.894;2023-07-13T09:26:20;101457.91;;;27.14;56.42
78444;BME280;67739;52.986;8.894;2023-07-13T09:28:58;101458.69;;;27.32;56.15
78444;BME280;67739;52.986;8.894;2023-07-13T09:31:37;101470.78;;;27.47;56.14
78444;BME280;67739;52.986;8.894;2023-07-13T09:34:09;101471.91;;;27.62;55.66
78444;BME280;67739;52.986;8.894;2023-07-13T09:36:35;101468.66;;;27.75;55.75
78444;BME280;67739;52.986;8.894;2023-07-13T09:39:27;101458.69;;;27.90;55.44
78444;BME280;67739;52.986;8.894;2023-07-13T09:42:01;101467.16;;;28.05;55.61
78444;BME280;67739;52.986;8.894;2023-07-13T09:44:37;101458.22;;;28.19;55.08
78444;BME280;67739;52.986;8.894;2023-07-13T09:47:03;101465.97;;;28.32;55.51
78444;BME280;67739;52.986;8.894;2023-07-13T09:49:40;101463.56;;;28.45;54.79
78444;BME280;67739;52.986;8.894;2023-07-13T09:52:15;101455.81;;;28.57;55.09
78444;BME280;67739;52.986;8.894;2023-07-13T09:54:45;101454.41;;;28.69;54.89
78444;BME280;67739;52.986;8.894;2023-07-13T09:57:16;101462.34;;;28.80;54.55
78444;BME280;67739;52.986;8.894;2023-07-13T09:59:47;101448.16;;;28.91;54.71
78444;BME280;67739;52.986;8.894;2023-07-13T10:04:55;101457.38;;;29.14;54.51
78444;BME280;67739;52.986;8.894;2023-07-13T10:07:22;101451.31;;;29.27;54.50
78444;BME280;67739;52.986;8.894;2023-07-13T10:09:52;101450.03;;;29.38;54.54
78444;BME280;67739;52.986;8.894;2023-07-13T10:12:18;101458.81;;;29.49;54.29
78444;BME280;67739;52.986;8.894;2023-07-13T10:14:44;101453.72;;;29.61;54.25
78444;BME280;67739;52.986;8.894;2023-07-13T10:17:12;101449.88;;;29.70;54.25
78444;BME280;67739;52.986;8.894;2023-07-13T10:19:41;101459.47;;;29.82;54.30
78444;BME280;67739;52.986;8.894;2023-07-13T10:22:24;101451.97;;;29.91;54.33
78444;BME280;67739;52.986;8.894;2023-07-13T10:24:52;101451.78;;;30.01;54.05
78444;BME280;67739;52.986;8.894;2023-07-13T10:27:20;101454.66;;;30.07;53.92
78444;BME280;67739;52.986;8.894;2023-07-13T10:30:13;101459.75;;;30.18;53.93
78444;BME280;67739;52.986;8.894;2023-07-13T10:32:40;101453.31;;;30.26;53.80
78444;BME280;67739;52.986;8.894;2023-07-13T10:35:10;101448.91;;;30.32;53.64
78444;BME280;67739;52.986;8.894;2023-07-13T10:37:39;101454.56;;;30.38;53.27
78444;BME280;67739;52.986;8.894;2023-07-13T10:40:13;101465.75;;;30.45;52.87
78444;BME280;67739;52.986;8.894;2023-07-13T10:42:41;101473.50;;;30.49;52.20
78444;BME280;67739;52.986;8.894;2023-07-13T10:45:16;101467.59;;;30.52;52.09
78444;BME280;67739;52.986;8.894;2023-07-13T10:47:44;101470.69;;;30.57;52.24
78444;BME280;67739;52.986;8.894;2023-07-13T10:50:17;101465.44;;;30.63;52.00
78444;BME280;67739;52.986;8.894;2023-07-13T10:52:51;101484.25;;;30.67;51.99
78444;BME280;67739;52.986;8.894;2023-07-13T10:55:36;101495.84;;;30.71;51.64
78444;BME280;67739;52.986;8.894;2023-07-13T10:58:12;101509.69;;;30.71;50.57
78444;BME280;67739;52.986;8.894;2023-07-13T11:00:56;101523.03;;;30.67;50.41
78444;BME280;67739;52.986;8.894;2023-07-13T11:03:23;101529.44;;;30.68;50.78
78444;BME280;67739;52.986;8.894;2023-07-13T11:05:51;101533.25;;;30.67;50.60
78444;BME280;67739;52.986;8.894;2023-07-13T11:08:38;101545.56;;;30.64;50.60
78444;BME280;67739;52.986;8.894;2023-07-13T11:18:53;101550.28;;;30.33;49.89
78444;BME280;67739;52.986;8.894;2023-07-13T11:21:33;101530.84;;;30.18;49.33
78444;BME280;67739;52.986;8.894;2023-07-13T11:24:04;101536.69;;;30.00;49.13
78444;BME280;67739;52.986;8.894;2023-07-13T11:29:33;101569.41;;;29.58;47.94
78444;BME280;67739;52.986;8.894;2023-07-13T11:32:21;101566.47;;;29.35;47.92
78444;BME280;67739;52.986;8.894;2023-07-13T11:34:47;101553.44;;;29.12;47.88
78444;BME280;67739;52.986;8.894;2023-07-13T11:37:16;101557.59;;;28.92;47.93
78444;BME280;67739;52.986;8.894;2023-07-13T11:39:44;101564.84;;;28.69;47.64
78444;BME280;67739;52.986;8.894;2023-07-13T11:42:16;101586.56;;;28.47;47.94
78444;BME280;67739;52.986;8.894;2023-07-13T11:44:50;101565.34;;;28.24;47.60
78444;BME280;67739;52.986;8.894;2023-07-13T11:47:21;101576.09;;;28.01;47.39
78444;BME280;67739;52.986;8.894;2023-07-13T11:49:54;101574.31;;;27.75;47.43
78444;BME280;67739;52.986;8.894;2023-07-13T11:52:34;101576.38;;;27.48;47.07
78444;BME280;67739;52.986;8.894;2023-07-13T11:55:02;101594.69;;;27.23;47.28
78444;BME280;67739;52.986;8.894;2023-07-13T11:57:32;101604.84;;;26.96;47.06
78444;BME280;67739;52.986;8.894;2023-07-13T12:00:02;101613.88;;;26.71;47.10
78444;BME280;67739;52.986;8.894;2023-07-13T12:02:32;101619.00;;;26.48;47.59
78444;BME280;67739;52.986;8.894;2023-07-13T12:04:59;101624.75;;;26.27;47.48
78444;BME280;67739;52.986;8.894;2023-07-13T12:07:28;101616.97;;;26.05;48.12
78444;BME280;67739;52.986;8.894;2023-07-13T12:10:03;101628.19;;;25.84;47.79
78444;BME280;67739;52.986;8.894;2023-07-13T12:12:36;101643.06;;;25.64;48.09
78444;BME280;67739;52.986;8.894;2023-07-13T12:15:06;101634.28;;;25.41;48.35
78444;BME280;67739;52.986;8.894;2023-07-13T12:17:34;101639.13;;;25.20;48.63
78444;BME280;67739;52.986;8.894;2023-07-13T12:20:00;101631.94;;;24.99;48.81
78444;BME280;67739;52.986;8.894;2023-07-13T12:22:27;101630.06;;;24.81;49.13
78444;BME280;67739;52.986;8.894;2023-07-13T12:24:52;101640.75;;;24.64;49.11
78444;BME280;67739;52.986;8.894;2023-07-13T12:27:25;101645.06;;;24.48;49.53
78444;BME280;67739;52.986;8.894;2023-07-13T12:29:57;101634.81;;;24.30;49.63
78444;BME280;67739;52.986;8.894;2023-07-13T12:32:25;101645.28;;;24.16;49.50
78444;BME280;67739;52.986;8.894;2023-07-13T12:34:57;101637.72;;;23.98;49.91
78444;BME280;67739;52.986;8.894;2023-07-13T12:37:23;101635.38;;;23.84;49.99
78444;BME280;67739;52.986;8.894;2023-07-13T12:39:49;101649.44;;;23.70;50.28
78444;BME280;67739;52.986;8.894;2023-07-13T12:42:27;101650.81;;;23.55;50.70
78444;BME280;67739;52.986;8.894;2023-07-13T12:47:30;101644.91;;;23.29;51.16
78444;BME280;67739;52.986;8.894;2023-07-13T12:50:04;101630.56;;;23.16;51.37
78444;BME280;67739;52.986;8.894;2023-07-13T12:52:34;101622.41;;;23.05;51.32
78444;BME280;67739;52.986;8.894;2023-07-13T12:55:06;101624.50;;;22.91;51.59
78444;BME280;67739;52.986;8.894;2023-07-13T13:00:32;101642.97;;;22.67;51.94
78444;BME280;67739;52.986;8.894;2023-07-13T13:03:04;101647.38;;;22.58;52.53
78444;BME280;67739;52.986;8.894;2023-07-13T13:05:31;101641.84;;;22.49;52.69
78444;BME280;67739;52.986;8.894;2023-07-13T13:07:57;101641.59;;;22.41;52.70
78444;BME280;67739;52.986;8.894;2023-07-13T13:10:23;101641.38;;;22.33;53.32
78444;BME280;67739;52.986;8.894;2023-07-13T13:12:50;101635.56;;;22.26;53.24
78444;BME280;67739;52.986;8.894;2023-07-13T13:15:15;101641.44;;;22.21;53.48
78444;BME280;67739;52.986;8.894;2023-07-13T13:17:42;101633.59;;;22.17;53.91
78444;BME280;67739;52.986;8.894;2023-07-13T13:20:19;101636.72;;;22.12;54.34
78444;BME280;67739;52.986;8.894;2023-07-13T13:22:45;101636.97;;;22.09;54.32